createdAt,value
2023-05-07T00:01:58.585Z,75.70
2023-05-07T00:05:01.785Z,75.70
2023-05-07T00:08:05.220Z,75.60
2023-05-07T00:11:09.598Z,75.60
2023-05-07T00:14:12.599Z,75.60
2023-05-07T00:17:17.390Z,75.70
2023-05-07T00:20:20.814Z,75.30
2023-05-07T00:23:24.112Z,75.10
2023-05-07T00:26:28.504Z,75.20
2023-05-07T00:29:31.499Z,75.20
2023-05-07T00:32:35.860Z,75.30
2023-05-07T00:35:40.537Z,75.20
2023-05-07T00:38:46.483Z,74.90
2023-05-07T00:41:52.398Z,74.60
2023-05-07T00:44:56.154Z,74.60
2023-05-07T00:48:01.945Z,74.70
2023-05-07T00:51:05.542Z,74.90
2023-05-07T00:54:08.877Z,75.00
2023-05-07T00:57:13.441Z,75.00
2023-05-07T01:00:16.945Z,75.20
2023-05-07T01:03:20.035Z,75.40
2023-05-07T01:06:25.868Z,75.30
2023-05-07T01:09:30.639Z,75.30
2023-05-07T01:12:35.425Z,74.70
2023-05-07T01:15:38.877Z,74.50
2023-05-07T01:18:41.965Z,74.60
2023-05-07T01:21:48.756Z,74.70
2023-05-07T01:24:53.480Z,74.80
2023-05-07T01:27:56.536Z,74.80
2023-05-07T01:31:05.079Z,74.70
2023-05-07T01:34:10.965Z,75.00
2023-05-07T01:37:15.124Z,75.10
2023-05-07T01:40:20.162Z,75.20
2023-05-07T01:43:23.280Z,75.20
2023-05-07T01:46:28.372Z,75.00
2023-05-07T01:49:31.834Z,75.00
2023-05-07T01:52:34.881Z,75.00
2023-05-07T01:55:39.382Z,74.90
2023-05-07T01:58:42.368Z,74.20
2023-05-07T02:01:45.851Z,74.00
2023-05-07T02:04:48.855Z,74.00
2023-05-07T02:07:51.854Z,74.10
2023-05-07T02:10:56.192Z,74.20
2023-05-07T02:13:59.180Z,74.20
2023-05-07T02:17:02.113Z,74.50
2023-05-07T02:20:05.841Z,74.50
2023-05-07T02:23:08.813Z,74.60
2023-05-07T02:26:13.221Z,74.50
2023-05-07T02:29:16.256Z,74.40
2023-05-07T02:32:19.324Z,74.30
2023-05-07T02:35:22.356Z,74.50
2023-05-07T02:38:25.397Z,74.40
2023-05-07T02:41:31.743Z,74.30
2023-05-07T02:44:36.535Z,74.60
2023-05-07T02:47:39.541Z,74.60
2023-05-07T02:50:42.470Z,74.50
2023-05-07T02:53:47.366Z,74.50
2023-05-07T02:56:51.783Z,74.30
2023-05-07T02:59:54.799Z,74.00
2023-05-07T03:02:58.004Z,74.00
2023-05-07T03:06:01.000Z,74.20
2023-05-07T03:09:04.081Z,74.10
2023-05-07T03:12:09.017Z,74.00
2023-05-07T03:15:13.685Z,73.90
2023-05-07T03:18:16.973Z,73.80
2023-05-07T03:21:20.105Z,73.50
2023-05-07T03:24:23.195Z,73.40
2023-05-07T03:27:27.942Z,73.60
2023-05-07T03:30:31.091Z,73.60
2023-05-07T03:33:35.496Z,73.60
2023-05-07T03:36:38.457Z,73.40
2023-05-07T03:39:41.435Z,73.60
2023-05-07T03:42:45.923Z,73.60
2023-05-07T03:45:48.964Z,73.40
2023-05-07T03:48:51.953Z,73.70
2023-05-07T03:51:54.935Z,73.70
2023-05-07T03:54:57.964Z,73.60
2023-05-07T03:58:02.344Z,73.80
2023-05-07T04:01:05.750Z,73.60
2023-05-07T04:04:08.781Z,73.60
2023-05-07T04:07:12.096Z,73.30
2023-05-07T04:10:15.535Z,73.30
2023-05-07T04:13:20.002Z,73.60
2023-05-07T04:16:23.341Z,73.60
2023-05-07T04:19:26.448Z,73.50
2023-05-07T04:22:29.597Z,73.70
2023-05-07T04:25:32.669Z,73.70
2023-05-07T04:28:37.319Z,73.60
2023-05-07T04:31:40.402Z,73.40
2023-05-07T04:34:43.529Z,73.10
2023-05-07T04:37:46.557Z,73.20
2023-05-07T04:40:49.471Z,73.40
2023-05-07T04:43:53.969Z,73.20
2023-05-07T04:46:56.974Z,73.20
2023-05-07T04:50:00.516Z,72.70
2023-05-07T04:53:04.053Z,72.60
2023-05-07T04:56:07.296Z,72.50
2023-05-07T04:59:11.679Z,72.40
2023-05-07T05:02:14.686Z,71.50
2023-05-07T05:05:17.893Z,71.20
2023-05-07T05:08:20.928Z,71.20
2023-05-07T05:11:24.140Z,70.90
2023-05-07T05:14:28.486Z,70.80
2023-05-07T05:17:31.488Z,70.80
2023-05-07T05:20:34.446Z,70.50
2023-05-07T05:23:37.451Z,70.50
2023-05-07T05:26:40.400Z,70.50
2023-05-07T05:29:44.724Z,70.00
2023-05-07T05:32:47.642Z,70.10
2023-05-07T05:35:51.482Z,70.40
2023-05-07T05:38:54.451Z,70.10
2023-05-07T05:41:57.401Z,69.90
2023-05-07T05:45:01.915Z,69.90
2023-05-07T05:48:05.182Z,69.20
2023-05-07T05:51:08.349Z,68.80
2023-05-07T05:54:11.348Z,68.70
2023-05-07T05:57:14.465Z,68.70
2023-05-07T06:00:19.222Z,69.10
2023-05-07T06:03:22.233Z,69.20
2023-05-07T06:06:25.544Z,68.60
2023-05-07T06:09:28.595Z,68.50
2023-05-07T06:12:31.607Z,68.80
2023-05-07T06:15:35.981Z,68.70
2023-05-07T06:18:39.065Z,68.40
2023-05-07T06:21:42.441Z,67.60
2023-05-07T06:24:45.455Z,67.80
2023-05-07T06:27:48.448Z,67.80
2023-05-07T06:30:52.726Z,67.80
2023-05-07T06:33:56.293Z,67.80
2023-05-07T06:36:59.419Z,66.80
2023-05-07T06:40:02.449Z,66.70
2023-05-07T06:43:05.438Z,66.90
2023-05-07T06:46:09.826Z,67.40
2023-05-07T06:49:12.947Z,66.80
2023-05-07T06:52:15.966Z,66.60
2023-05-07T06:55:20.308Z,66.30
2023-05-07T06:58:23.257Z,66.50
2023-05-07T07:01:27.698Z,65.80
2023-05-07T07:04:31.080Z,65.30
2023-05-07T07:07:34.160Z,65.10
2023-05-07T07:10:37.504Z,63.90
2023-05-07T07:13:41.551Z,63.90
2023-05-07T07:16:47.679Z,63.90
2023-05-07T07:19:50.663Z,63.80
2023-05-07T07:22:53.633Z,64.20
2023-05-07T07:25:56.694Z,63.10
2023-05-07T07:28:59.769Z,62.40
2023-05-07T07:32:04.511Z,62.80
2023-05-07T07:35:08.951Z,62.30
2023-05-07T07:38:12.338Z,62.10
2023-05-07T07:41:15.459Z,62.60
2023-05-07T07:44:18.492Z,62.20
2023-05-07T07:47:22.839Z,61.80
2023-05-07T07:53:35.007Z,62.20
2023-05-07T07:56:38.057Z,61.40
2023-05-07T07:59:43.273Z,62.20
2023-05-07T08:02:48.312Z,61.80
2023-05-07T08:05:52.153Z,61.70
2023-05-07T08:08:55.105Z,61.30
2023-05-07T08:11:58.210Z,60.50
2023-05-07T08:15:01.165Z,61.50
2023-05-07T08:18:06.013Z,60.10
2023-05-07T08:21:09.029Z,60.50
2023-05-07T08:24:12.626Z,60.50
2023-05-07T08:27:15.651Z,59.80
2023-05-07T08:30:18.679Z,59.50
2023-05-07T08:33:23.133Z,58.90
2023-05-07T08:36:26.568Z,60.00
2023-05-07T08:39:29.693Z,58.70
2023-05-07T08:42:37.274Z,59.10
2023-05-07T08:45:41.979Z,59.10
2023-05-07T08:48:46.950Z,59.00
2023-05-07T08:51:50.122Z,58.70
2023-05-07T08:54:53.254Z,57.50
2023-05-07T08:57:56.248Z,57.10
2023-05-07T09:00:59.485Z,57.30
2023-05-07T09:04:04.397Z,57.90
2023-05-07T09:07:07.390Z,57.00
2023-05-07T09:10:11.310Z,56.90
2023-05-07T09:13:15.543Z,57.10
2023-05-07T09:16:18.779Z,57.10
2023-05-07T09:19:26.673Z,57.00
2023-05-07T09:22:29.953Z,57.20
2023-05-07T09:25:34.192Z,57.50
2023-05-07T09:28:39.749Z,57.60
2023-05-07T09:31:42.797Z,56.90
2023-05-07T09:34:48.283Z,56.50
2023-05-07T09:37:51.508Z,57.00
2023-05-07T09:41:05.042Z,57.00
2023-05-07T09:44:09.488Z,56.70
2023-05-07T09:47:17.583Z,57.70
2023-05-07T09:50:23.544Z,57.30
2023-05-07T09:53:27.689Z,56.70
2023-05-07T09:56:32.206Z,57.10
2023-05-07T09:59:36.594Z,57.60
2023-05-07T10:02:47.320Z,56.70
2023-05-07T10:05:52.257Z,56.40
2023-05-07T10:08:56.817Z,56.20
2023-05-07T10:12:01.581Z,56.30
2023-05-07T10:15:05.535Z,56.30
2023-05-07T10:18:09.573Z,55.10
2023-05-07T10:21:19.355Z,55.00
2023-05-07T10:24:27.955Z,54.90
2023-05-07T10:27:31.777Z,53.40
2023-05-07T10:30:42.429Z,53.00
2023-05-07T10:33:48.886Z,54.70
2023-05-07T10:36:54.646Z,53.10
2023-05-07T10:39:58.600Z,53.80
2023-05-07T10:43:04.343Z,53.30
2023-05-07T10:46:16.092Z,53.40
2023-05-07T10:49:19.105Z,52.20
2023-05-07T10:52:27.707Z,52.50
2023-05-07T10:55:31.170Z,52.70
2023-05-07T10:58:35.715Z,53.00
2023-05-07T11:01:56.348Z,52.30
2023-05-07T11:05:23.972Z,52.20
2023-05-07T11:08:48.351Z,51.90
2023-05-07T11:11:53.220Z,52.60
2023-05-07T11:14:57.879Z,52.20
2023-05-07T11:18:02.113Z,52.60
2023-05-07T11:21:05.368Z,52.10
2023-05-07T11:24:09.435Z,52.60
2023-05-07T11:27:14.246Z,52.60
2023-05-07T11:30:20.358Z,52.40
2023-05-07T11:33:26.359Z,52.40
2023-05-07T11:36:34.649Z,52.50
2023-05-07T11:39:37.862Z,52.70
2023-05-07T11:42:43.788Z,53.00
2023-05-07T11:45:47.436Z,52.80
2023-05-07T11:48:50.830Z,52.20
2023-05-07T11:51:53.917Z,52.10
2023-05-07T11:54:58.529Z,51.40
2023-05-07T11:58:03.040Z,52.00
2023-05-07T12:01:06.399Z,52.10
2023-05-07T12:04:09.651Z,53.10
2023-05-07T12:07:16.165Z,51.90
2023-05-07T12:10:20.785Z,52.00
2023-05-07T12:13:26.914Z,52.50
2023-05-07T12:16:30.931Z,52.00
2023-05-07T12:19:35.455Z,52.60
2023-05-07T12:22:39.730Z,51.20
2023-05-07T12:25:47.716Z,51.30
2023-05-07T12:28:52.484Z,50.90
2023-05-07T12:31:55.591Z,49.80
2023-05-07T12:34:58.664Z,49.70
2023-05-07T12:38:05.187Z,49.80
2023-05-07T12:41:10.173Z,50.40
2023-05-07T12:44:17.260Z,50.90
2023-05-07T12:47:20.571Z,51.20
2023-05-07T12:50:23.632Z,50.70
2023-05-07T12:53:28.262Z,50.30
2023-05-07T12:56:33.330Z,50.80
2023-05-07T12:59:40.771Z,51.20
2023-05-07T13:02:46.304Z,50.40
2023-05-07T13:05:49.444Z,49.60
2023-05-07T13:08:52.442Z,49.50
2023-05-07T13:11:55.615Z,49.40
2023-05-07T13:15:00.138Z,49.60
2023-05-07T13:18:03.548Z,48.40
2023-05-07T13:21:06.909Z,48.40
2023-05-07T13:24:10.428Z,48.50
2023-05-07T13:27:13.370Z,49.10
2023-05-07T13:30:18.028Z,48.00
2023-05-07T13:33:22.714Z,49.00
2023-05-07T13:36:25.731Z,49.30
2023-05-07T13:39:28.754Z,48.60
2023-05-07T13:42:33.327Z,49.10
2023-05-07T13:45:37.843Z,48.60
2023-05-07T13:48:40.878Z,48.50
2023-05-07T13:51:43.881Z,48.60
2023-05-07T13:54:46.895Z,48.50
2023-05-07T13:57:50.033Z,48.70
2023-05-07T14:00:54.406Z,48.90
2023-05-07T14:03:58.421Z,48.80
2023-05-07T14:07:01.510Z,49.50
2023-05-07T14:10:05.015Z,48.90
2023-05-07T14:13:08.732Z,49.30
2023-05-07T14:16:13.209Z,48.40
2023-05-07T14:19:16.332Z,48.50
2023-05-07T14:22:19.399Z,49.00
2023-05-07T14:25:22.428Z,49.20
2023-05-07T14:28:26.295Z,49.40
2023-05-07T14:31:31.431Z,49.30
2023-05-07T14:34:34.797Z,49.40
2023-05-07T14:37:37.837Z,49.80
2023-05-07T14:40:40.812Z,49.70
2023-05-07T14:43:44.891Z,49.60
2023-05-07T14:46:49.571Z,49.60
2023-05-07T14:49:54.006Z,50.10
2023-05-07T14:52:56.966Z,49.80
2023-05-07T14:56:01.175Z,50.30
2023-05-07T14:59:04.769Z,50.50
2023-05-07T15:02:09.694Z,50.20
2023-05-07T15:05:13.085Z,50.80
2023-05-07T15:08:16.294Z,50.40
2023-05-07T15:11:19.275Z,49.80
2023-05-07T15:14:22.873Z,50.10
2023-05-07T15:17:27.791Z,49.70
2023-05-07T15:20:31.056Z,49.50
2023-05-07T15:23:34.088Z,49.70
2023-05-07T15:26:37.139Z,49.20
2023-05-07T15:29:40.368Z,49.50
2023-05-07T15:32:44.885Z,49.70
2023-05-07T15:35:47.978Z,49.40
2023-05-07T15:38:51.030Z,50.00
2023-05-07T15:41:54.023Z,50.00
2023-05-07T15:44:57.244Z,50.00
2023-05-07T15:48:01.973Z,50.20
2023-05-07T15:51:05.571Z,49.70
2023-05-07T15:54:08.647Z,49.50
2023-05-07T15:57:12.210Z,49.80
2023-05-07T16:00:17.327Z,49.80
2023-05-07T16:03:22.941Z,49.90
2023-05-07T16:06:26.084Z,50.00
2023-05-07T16:09:29.325Z,50.20
2023-05-07T16:12:32.314Z,50.90
2023-05-07T16:15:35.985Z,51.30
2023-05-07T16:18:40.951Z,51.20
2023-05-07T16:21:44.050Z,51.80
2023-05-07T16:24:47.139Z,51.10
2023-05-07T16:27:50.214Z,51.10
2023-05-07T16:30:53.287Z,50.60
2023-05-07T16:34:01.193Z,50.50
2023-05-07T16:37:06.581Z,51.20
2023-05-07T16:40:10.619Z,50.90
2023-05-07T16:43:13.973Z,50.70
2023-05-07T16:46:17.009Z,50.80
2023-05-07T16:49:23.619Z,50.80
2023-05-07T16:52:26.833Z,51.10
2023-05-07T16:55:30.730Z,51.60
2023-05-07T16:58:34.565Z,51.30
2023-05-07T17:01:37.784Z,52.30
2023-05-07T17:04:42.286Z,52.00
2023-05-07T17:07:45.252Z,52.60
2023-05-07T17:10:48.297Z,53.30
2023-05-07T17:13:51.928Z,53.10
2023-05-07T17:16:54.990Z,53.20
2023-05-07T17:20:00.001Z,53.30
2023-05-07T17:23:03.216Z,52.90
2023-05-07T17:26:13.215Z,53.20
2023-05-07T17:29:16.206Z,52.70
2023-05-07T17:32:19.495Z,52.60
2023-05-07T17:35:24.137Z,52.80
2023-05-07T17:38:27.269Z,53.40
2023-05-07T17:41:30.315Z,53.00
2023-05-07T17:44:33.919Z,53.00
2023-05-07T17:47:36.984Z,53.10
2023-05-07T17:50:41.493Z,53.30
2023-05-07T17:53:44.561Z,54.00
2023-05-07T17:56:47.610Z,53.80
2023-05-07T17:59:50.760Z,54.20
2023-05-07T18:02:54.782Z,54.10
2023-05-07T18:06:00.257Z,54.70
2023-05-07T18:09:03.709Z,54.70
2023-05-07T18:12:07.210Z,54.80
2023-05-07T18:15:11.618Z,54.80
2023-05-07T18:18:14.793Z,54.80
2023-05-07T18:21:19.622Z,54.90
2023-05-07T18:24:22.812Z,55.30
2023-05-07T18:27:25.899Z,55.70
2023-05-07T18:30:28.942Z,56.20
2023-05-07T18:33:32.103Z,55.90
2023-05-07T18:36:53.616Z,55.90
2023-05-07T18:40:12.165Z,56.50
2023-05-07T18:43:20.446Z,56.20
2023-05-07T18:46:24.833Z,56.40
2023-05-07T18:49:27.829Z,56.40
2023-05-07T18:52:33.565Z,56.40
2023-05-07T18:55:36.814Z,56.60
2023-05-07T18:58:39.882Z,56.30
2023-05-07T19:01:43.111Z,56.70
2023-05-07T19:04:46.515Z,56.10
2023-05-07T19:07:51.128Z,56.00
2023-05-07T19:10:56.614Z,55.80
2023-05-07T19:14:01.183Z,55.70
2023-05-07T19:17:05.955Z,55.70
2023-05-07T19:20:10.815Z,55.80
2023-05-07T19:23:15.492Z,55.90
2023-05-07T19:26:19.708Z,56.50
2023-05-07T19:29:22.801Z,56.50
2023-05-07T19:32:26.523Z,56.30
2023-05-07T19:35:29.696Z,56.60
2023-05-07T19:38:34.515Z,56.60
2023-05-07T19:41:37.628Z,56.70
2023-05-07T19:44:40.852Z,57.10
2023-05-07T19:47:43.957Z,57.30
2023-05-07T19:50:49.707Z,57.40
2023-05-07T19:53:54.245Z,57.50
2023-05-07T19:56:57.552Z,58.10
2023-05-07T20:00:00.596Z,58.00
2023-05-07T20:03:03.778Z,58.00
2023-05-07T20:06:07.040Z,58.20
2023-05-07T20:09:12.877Z,58.00
2023-05-07T20:12:15.974Z,58.50
2023-05-07T20:15:19.663Z,58.60
2023-05-07T20:18:22.657Z,59.10
2023-05-07T20:21:26.916Z,59.40
2023-05-07T20:24:31.742Z,59.50
2023-05-07T20:27:35.352Z,60.00
2023-05-07T20:30:38.441Z,60.50
2023-05-07T20:33:41.914Z,60.80
2023-05-07T20:36:46.494Z,60.80
2023-05-07T20:39:51.004Z,60.90
2023-05-07T20:42:54.299Z,61.10
2023-05-07T20:46:01.572Z,61.40
2023-05-07T20:49:04.784Z,61.50
2023-05-07T20:52:07.840Z,61.70
2023-05-07T20:55:12.520Z,61.80
2023-05-07T20:58:16.552Z,62.00
2023-05-07T21:01:19.667Z,62.20
2023-05-07T21:04:22.884Z,62.40
2023-05-07T21:07:26.195Z,62.20
2023-05-07T21:10:30.891Z,62.20
2023-05-07T21:13:33.968Z,62.10
2023-05-07T21:16:37.227Z,62.10
2023-05-07T21:19:43.421Z,62.30
2023-05-07T21:22:46.492Z,62.20
2023-05-07T21:25:51.817Z,62.20
2023-05-07T21:28:54.869Z,62.70
2023-05-07T21:31:58.092Z,62.80
2023-05-07T21:35:01.510Z,63.10
2023-05-07T21:38:04.563Z,63.20
2023-05-07T21:41:09.057Z,63.30
2023-05-07T21:44:12.324Z,63.50
2023-05-07T21:47:15.460Z,63.50
2023-05-07T21:50:18.809Z,63.90
2023-05-07T21:53:21.987Z,63.90
2023-05-07T21:56:26.530Z,64.00
2023-05-07T21:59:29.652Z,64.10
2023-05-07T22:02:32.856Z,64.20
2023-05-07T22:05:49.914Z,64.70
2023-05-07T22:08:53.162Z,64.70
2023-05-07T22:11:57.700Z,65.00
2023-05-07T22:15:01.131Z,65.10
2023-05-07T22:18:04.452Z,65.10
2023-05-07T22:21:07.836Z,65.10
2023-05-07T22:24:11.707Z,65.20
2023-05-07T22:27:16.719Z,65.30
2023-05-07T22:30:20.141Z,65.30
2023-05-07T22:33:23.364Z,65.30
2023-05-07T22:36:26.558Z,65.50
2023-05-07T22:39:34.296Z,65.60
2023-05-07T22:42:38.878Z,65.80
2023-05-07T22:45:44.354Z,65.80
2023-05-07T22:48:47.443Z,65.70
2023-05-07T22:51:50.772Z,65.90
2023-05-07T22:54:53.789Z,66.00
2023-05-07T22:57:58.570Z,66.10
2023-05-07T23:01:02.563Z,66.40
2023-05-07T23:04:05.764Z,66.40
2023-05-07T23:07:09.036Z,66.40
2023-05-07T23:10:12.324Z,66.40
2023-05-07T23:13:18.081Z,66.60
2023-05-07T23:16:21.620Z,66.40
2023-05-07T23:19:25.115Z,66.40
2023-05-07T23:22:28.163Z,66.40
2023-05-07T23:25:31.239Z,66.40
2023-05-07T23:28:35.643Z,66.30
2023-05-07T23:31:38.664Z,66.40
2023-05-07T23:34:41.749Z,66.50
2023-05-07T23:37:44.947Z,66.60
2023-05-07T23:40:48.265Z,66.60
2023-05-07T23:43:52.656Z,66.70
2023-05-07T23:46:55.697Z,66.70
2023-05-07T23:49:58.710Z,66.90
2023-05-07T23:53:01.740Z,67.10
2023-05-07T23:56:05.230Z,67.20
2023-05-07T23:59:10.123Z,67.20
